sensor_id;sensor_type;location;lat;lon;timestamp;temperature;humidity
6690;DHT22;76797;51.590;8.116;2024-03-02T00:00:13;11.40;99.90
6690;DHT22;76797;51.590;8.116;2024-03-02T00:02:45;11.40;99.90
6690;DHT22;76797;51.590;8.116;2024-03-02T00:05:12;11.40;99.90
6690;DHT22;76797;51.590;8.116;2024-03-02T00:07:41;11.40;99.90
6690;DHT22;76797;51.590;8.116;2024-03-02T00:10:09;11.40;99.90
6690;DHT22;76797;51.590;8.116;2024-03-02T00:12:41;11.40;99.90
6690;DHT22;76797;51.590;8.116;2024-03-02T00:17:55;11.40;99.90
6690;DHT22;76797;51.590;8.116;2024-03-02T00:20:24;11.40;99.90
6690;DHT22;76797;51.590;8.116;2024-03-02T00:23:03;11.50;99.90
6690;DHT22;76797;51.590;8.116;2024-03-02T00:25:40;11.40;99.90
6690;DHT22;76797;51.590;8.116;2024-03-02T00:28:18;11.40;99.90
6690;DHT22;76797;51.590;8.116;2024-03-02T00:33:16;11.40;99.90
6690;DHT22;76797;51.590;8.116;2024-03-02T00:35:44;11.30;99.90
6690;DHT22;76797;51.590;8.116;2024-03-02T00:38:10;11.30;99.90
6690;DHT22;76797;51.590;8.116;2024-03-02T00:40:35;11.40;99.90
6690;DHT22;76797;51.590;8.116;2024-03-02T00:43:02;11.50;99.90
6690;DHT22;76797;51.590;8.116;2024-03-02T00:45:28;11.30;99.90
6690;DHT22;76797;51.590;8.116;2024-03-02T00:47:54;11.30;99.90
6690;DHT22;76797;51.590;8.116;2024-03-02T00:50:20;11.30;99.90
6690;DHT22;76797;51.590;8.116;2024-03-02T00:52:47;11.30;99.90
6690;DHT22;76797;51.590;8.116;2024-03-02T00:55:15;11.30;99.90
6690;DHT22;76797;51.590;8.116;2024-03-02T00:57:41;11.20;99.90
6690;DHT22;76797;51.590;8.116;2024-03-02T01:00:07;11.20;99.90
6690;DHT22;76797;51.590;8.116;2024-03-02T01:02:35;11.20;99.90
6690;DHT22;76797;51.590;8.116;2024-03-02T01:05:01;11.50;99.90
6690;DHT22;76797;51.590;8.116;2024-03-02T01:07:26;11.50;99.90
6690;DHT22;76797;51.590;8.116;2024-03-02T01:09:52;11.10;99.90
6690;DHT22;76797;51.590;8.116;2024-03-02T01:12:17;11.10;99.90
6690;DHT22;76797;51.590;8.116;2024-03-02T01:14:43;11.10;99.90
6690;DHT22;76797;51.590;8.116;2024-03-02T01:17:08;11.20;99.90
6690;DHT22;76797;51.590;8.116;2024-03-02T01:19:34;11.10;99.90
6690;DHT22;76797;51.590;8.116;2024-03-02T01:21:59;11.10;99.90
6690;DHT22;76797;51.590;8.116;2024-03-02T01:24:25;11.00;99.90
6690;DHT22;76797;51.590;8.116;2024-03-02T01:26:51;11.00;99.90
6690;DHT22;76797;51.590;8.116;2024-03-02T01:29:16;11.30;99.90
6690;DHT22;76797;51.590;8.116;2024-03-02T01:31:42;11.00;99.90
6690;DHT22;76797;51.590;8.116;2024-03-02T01:34:08;10.90;99.90
6690;DHT22;76797;51.590;8.116;2024-03-02T01:36:34;10.90;99.90
6690;DHT22;76797;51.590;8.116;2024-03-02T01:38:59;10.90;99.90
6690;DHT22;76797;51.590;8.116;2024-03-02T01:41:25;10.90;99.90
6690;DHT22;76797;51.590;8.116;2024-03-02T01:43:50;10.90;99.90
6690;DHT22;76797;51.590;8.116;2024-03-02T01:46:16;11.30;99.90
6690;DHT22;76797;51.590;8.116;2024-03-02T01:48:42;11.30;99.90
6690;DHT22;76797;51.590;8.116;2024-03-02T01:51:07;10.90;99.90
6690;DHT22;76797;51.590;8.116;2024-03-02T01:53:34;10.90;99.90
6690;DHT22;76797;51.590;8.116;2024-03-02T01:55:59;10.90;99.90
6690;DHT22;76797;51.590;8.116;2024-03-02T01:58:27;10.80;99.90
6690;DHT22;76797;51.590;8.116;2024-03-02T02:00:52;11.20;99.90
6690;DHT22;76797;51.590;8.116;2024-03-02T02:03:18;10.80;99.90
6690;DHT22;76797;51.590;8.116;2024-03-02T02:05:43;10.70;99.90
6690;DHT22;76797;51.590;8.116;2024-03-02T02:08:09;10.80;99.90
6690;DHT22;76797;51.590;8.116;2024-03-02T02:10:35;10.70;99.90
6690;DHT22;76797;51.590;8.116;2024-03-02T02:13:00;10.80;99.90
6690;DHT22;76797;51.590;8.116;2024-03-02T02:15:29;10.70;99.90
6690;DHT22;76797;51.590;8.116;2024-03-02T02:17:56;10.70;99.90
6690;DHT22;76797;51.590;8.116;2024-03-02T02:20:23;10.70;99.90
6690;DHT22;76797;51.590;8.116;2024-03-02T02:23:03;10.40;99.90
6690;DHT22;76797;51.590;8.116;2024-03-02T02:25:30;10.70;99.90
6690;DHT22;76797;51.590;8.116;2024-03-02T02:27:57;10.60;99.90
6690;DHT22;76797;51.590;8.116;2024-03-02T02:30:25;10.60;99.90
6690;DHT22;76797;51.590;8.116;2024-03-02T02:32:51;10.60;99.90
6690;DHT22;76797;51.590;8.116;2024-03-02T02:35:17;10.70;99.90
6690;DHT22;76797;51.590;8.116;2024-03-02T02:37:43;10.80;99.90
6690;DHT22;76797;51.590;8.116;2024-03-02T02:40:10;10.70;99.90
6690;DHT22;76797;51.590;8.116;2024-03-02T02:42:35;10.70;99.90
6690;DHT22;76797;51.590;8.116;2024-03-02T02:45:01;10.80;99.90
6690;DHT22;76797;51.590;8.116;2024-03-02T02:47:26;10.70;99.90
6690;DHT22;76797;51.590;8.116;2024-03-02T02:49:54;10.70;99.90
6690;DHT22;76797;51.590;8.116;2024-03-02T02:52:19;10.70;99.90
6690;DHT22;76797;51.590;8.116;2024-03-02T02:54:46;11.00;99.90
6690;DHT22;76797;51.590;8.116;2024-03-02T02:57:12;10.80;99.90
6690;DHT22;76797;51.590;8.116;2024-03-02T02:59:37;10.80;99.90
6690;DHT22;76797;51.590;8.116;2024-03-02T03:02:03;11.10;99.90
6690;DHT22;76797;51.590;8.116;2024-03-02T03:04:28;10.80;99.90
6690;DHT22;76797;51.590;8.116;2024-03-02T03:06:54;10.80;99.90
6690;DHT22;76797;51.590;8.116;2024-03-02T03:09:19;10.80;99.90
6690;DHT22;76797;51.590;8.116;2024-03-02T03:11:45;11.20;99.90
6690;DHT22;76797;51.590;8.116;2024-03-02T03:14:10;10.80;99.90
6690;DHT22;76797;51.590;8.116;2024-03-02T03:16:36;10.80;99.90
6690;DHT22;76797;51.590;8.116;2024-03-02T03:19:01;10.80;99.90
6690;DHT22;76797;51.590;8.116;2024-03-02T03:21:27;10.80;99.90
6690;DHT22;76797;51.590;8.116;2024-03-02T03:23:52;10.80;99.90
6690;DHT22;76797;51.590;8.116;2024-03-02T03:26:18;11.30;99.90
6690;DHT22;76797;51.590;8.116;2024-03-02T03:28:43;10.80;99.90
6690;DHT22;76797;51.590;8.116;2024-03-02T03:31:09;10.80;99.90
6690;DHT22;76797;51.590;8.116;2024-03-02T03:33:35;10.80;99.90
6690;DHT22;76797;51.590;8.116;2024-03-02T03:36:01;10.80;99.90
6690;DHT22;76797;51.590;8.116;2024-03-02T03:38:28;10.80;99.90
6690;DHT22;76797;51.590;8.116;2024-03-02T03:40:54;10.80;99.90
6690;DHT22;76797;51.590;8.116;2024-03-02T03:43:20;10.80;99.90
6690;DHT22;76797;51.590;8.116;2024-03-02T03:45:45;11.10;99.90
6690;DHT22;76797;51.590;8.116;2024-03-02T03:48:11;10.80;99.90
6690;DHT22;76797;51.590;8.116;2024-03-02T03:50:37;10.80;99.90
6690;DHT22;76797;51.590;8.116;2024-03-02T03:53:03;10.80;99.90
6690;DHT22;76797;51.590;8.116;2024-03-02T03:55:29;10.70;99.90
6690;DHT22;76797;51.590;8.116;2024-03-02T03:57:54;10.80;99.90
6690;DHT22;76797;51.590;8.116;2024-03-02T04:00:20;10.70;99.90
6690;DHT22;76797;51.590;8.116;2024-03-02T04:02:46;10.80;99.90
6690;DHT22;76797;51.590;8.116;2024-03-02T04:05:11;10.70;99.90
6690;DHT22;76797;51.590;8.116;2024-03-02T04:07:37;10.70;99.90
6690;DHT22;76797;51.590;8.116;2024-03-02T04:10:10;11.00;99.90
6690;DHT22;76797;51.590;8.116;2024-03-02T04:12:36;10.70;99.90
6690;DHT22;76797;51.590;8.116;2024-03-02T04:15:04;10.70;99.90
6690;DHT22;76797;51.590;8.116;2024-03-02T04:17:31;10.70;99.90
6690;DHT22;76797;51.590;8.116;2024-03-02T04:19:57;10.70;99.90
6690;DHT22;76797;51.590;8.116;2024-03-02T04:22:23;10.70;99.90
6690;DHT22;76797;51.590;8.116;2024-03-02T04:24:48;10.70;99.90
6690;DHT22;76797;51.590;8.116;2024-03-02T04:27:14;10.70;99.90
6690;DHT22;76797;51.590;8.116;2024-03-02T04:29:39;10.70;99.90
6690;DHT22;76797;51.590;8.116;2024-03-02T04:32:05;11.10;99.90
6690;DHT22;76797;51.590;8.116;2024-03-02T04:34:31;10.70;99.90
6690;DHT22;76797;51.590;8.116;2024-03-02T04:36:56;10.70;99.90
6690;DHT22;76797;51.590;8.116;2024-03-02T04:39:22;11.00;99.90
6690;DHT22;76797;51.590;8.116;2024-03-02T04:41:47;10.70;99.90
6690;DHT22;76797;51.590;8.116;2024-03-02T04:44:13;10.70;99.90
6690;DHT22;76797;51.590;8.116;2024-03-02T04:46:38;10.70;99.90
6690;DHT22;76797;51.590;8.116;2024-03-02T04:49:04;10.70;99.90
6690;DHT22;76797;51.590;8.116;2024-03-02T04:51:30;10.70;99.90
6690;DHT22;76797;51.590;8.116;2024-03-02T04:53:55;10.70;99.90
6690;DHT22;76797;51.590;8.116;2024-03-02T04:56:21;10.70;99.90
6690;DHT22;76797;51.590;8.116;2024-03-02T04:59:25;10.80;99.90
6690;DHT22;76797;51.590;8.116;2024-03-02T05:01:50;10.70;99.90
6690;DHT22;76797;51.590;8.116;2024-03-02T05:04:16;10.80;99.90
6690;DHT22;76797;51.590;8.116;2024-03-02T05:06:41;10.80;99.90
6690;DHT22;76797;51.590;8.116;2024-03-02T05:09:08;10.60;99.90
6690;DHT22;76797;51.590;8.116;2024-03-02T05:11:33;10.70;99.90
6690;DHT22;76797;51.590;8.116;2024-03-02T05:14:05;11.00;99.90
6690;DHT22;76797;51.590;8.116;2024-03-02T05:16:35;10.70;99.90
6690;DHT22;76797;51.590;8.116;2024-03-02T05:19:00;11.10;99.90
6690;DHT22;76797;51.590;8.116;2024-03-02T05:21:26;10.70;99.90
6690;DHT22;76797;51.590;8.116;2024-03-02T05:23:51;10.60;99.90
6690;DHT22;76797;51.590;8.116;2024-03-02T05:26:17;10.70;99.90
6690;DHT22;76797;51.590;8.116;2024-03-02T05:28:42;10.70;99.90
6690;DHT22;76797;51.590;8.116;2024-03-02T05:31:11;10.70;99.90
6690;DHT22;76797;51.590;8.116;2024-03-02T05:33:40;10.70;99.90
6690;DHT22;76797;51.590;8.116;2024-03-02T05:36:05;11.10;99.90
6690;DHT22;76797;51.590;8.116;2024-03-02T05:38:32;10.70;99.90
6690;DHT22;76797;51.590;8.116;2024-03-02T05:40:57;10.60;99.90
6690;DHT22;76797;51.590;8.116;2024-03-02T05:43:23;10.80;99.90
6690;DHT22;76797;51.590;8.116;2024-03-02T05:45:49;10.60;99.90
6690;DHT22;76797;51.590;8.116;2024-03-02T05:48:14;10.60;99.90
6690;DHT22;76797;51.590;8.116;2024-03-02T05:50:40;10.60;99.90
6690;DHT22;76797;51.590;8.116;2024-03-02T05:53:05;10.60;99.90
6690;DHT22;76797;51.590;8.116;2024-03-02T05:55:31;10.60;99.90
6690;DHT22;76797;51.590;8.116;2024-03-02T05:57:56;10.60;99.90
6690;DHT22;76797;51.590;8.116;2024-03-02T06:00:31;10.90;99.90
6690;DHT22;76797;51.590;8.116;2024-03-02T06:02:56;10.60;99.90
6690;DHT22;76797;51.590;8.116;2024-03-02T06:05:22;10.60;99.90
6690;DHT22;76797;51.590;8.116;2024-03-02T06:07:47;10.70;99.90
6690;DHT22;76797;51.590;8.116;2024-03-02T06:10:13;10.90;99.90
6690;DHT22;76797;51.590;8.116;2024-03-02T06:12:39;10.60;99.90
6690;DHT22;76797;51.590;8.116;2024-03-02T06:15:05;10.60;99.90
6690;DHT22;76797;51.590;8.116;2024-03-02T06:17:31;10.60;99.90
6690;DHT22;76797;51.590;8.116;2024-03-02T06:19:56;10.80;99.90
6690;DHT22;76797;51.590;8.116;2024-03-02T06:22:22;10.60;99.90
6690;DHT22;76797;51.590;8.116;2024-03-02T06:24:50;10.50;99.90
6690;DHT22;76797;51.590;8.116;2024-03-02T06:27:16;10.50;99.90
6690;DHT22;76797;51.590;8.116;2024-03-02T06:29:41;10.50;99.90
6690;DHT22;76797;51.590;8.116;2024-03-02T06:32:07;10.50;99.90
6690;DHT22;76797;51.590;8.116;2024-03-02T06:34:32;10.50;99.90
6690;DHT22;76797;51.590;8.116;2024-03-02T06:36:58;10.50;99.90
6690;DHT22;76797;51.590;8.116;2024-03-02T06:39:23;10.50;99.90
6690;DHT22;76797;51.590;8.116;2024-03-02T06:41:49;10.50;99.90
6690;DHT22;76797;51.590;8.116;2024-03-02T06:44:14;10.50;99.90
6690;DHT22;76797;51.590;8.116;2024-03-02T06:46:40;10.50;99.90
6690;DHT22;76797;51.590;8.116;2024-03-02T06:49:06;10.50;99.90
6690;DHT22;76797;51.590;8.116;2024-03-02T06:51:33;10.40;99.90
6690;DHT22;76797;51.590;8.116;2024-03-02T06:53:59;10.40;99.90
6690;DHT22;76797;51.590;8.116;2024-03-02T06:56:24;10.40;99.90
6690;DHT22;76797;51.590;8.116;2024-03-02T06:58:50;10.40;99.90
6690;DHT22;76797;51.590;8.116;2024-03-02T07:01:15;10.40;99.90
6690;DHT22;76797;51.590;8.116;2024-03-02T07:03:41;10.80;99.90
6690;DHT22;76797;51.590;8.116;2024-03-02T07:06:06;10.50;99.90
6690;DHT22;76797;51.590;8.116;2024-03-02T07:08:32;10.50;99.90
6690;DHT22;76797;51.590;8.116;2024-03-02T07:10:57;10.50;99.90
6690;DHT22;76797;51.590;8.116;2024-03-02T07:13:23;10.50;99.90
6690;DHT22;76797;51.590;8.116;2024-03-02T07:15:48;10.50;99.90
6690;DHT22;76797;51.590;8.116;2024-03-02T07:18:40;10.50;99.90
6690;DHT22;76797;51.590;8.116;2024-03-02T07:21:10;10.60;99.90
6690;DHT22;76797;51.590;8.116;2024-03-02T07:23:36;10.80;99.90
6690;DHT22;76797;51.590;8.116;2024-03-02T07:26:02;10.60;99.90
6690;DHT22;76797;51.590;8.116;2024-03-02T07:28:28;10.60;99.90
6690;DHT22;76797;51.590;8.116;2024-03-02T07:31:01;10.70;99.90
6690;DHT22;76797;51.590;8.116;2024-03-02T07:33:27;10.70;99.90
6690;DHT22;76797;51.590;8.116;2024-03-02T07:35:54;10.80;99.90
6690;DHT22;76797;51.590;8.116;2024-03-02T07:38:20;10.80;99.90
6690;DHT22;76797;51.590;8.116;2024-03-02T07:40:45;10.90;99.90
6690;DHT22;76797;51.590;8.116;2024-03-02T07:43:11;10.90;99.90
6690;DHT22;76797;51.590;8.116;2024-03-02T07:45:36;11.10;99.90
6690;DHT22;76797;51.590;8.116;2024-03-02T07:48:02;11.10;99.90
6690;DHT22;76797;51.590;8.116;2024-03-02T07:50:30;11.10;99.90
6690;DHT22;76797;51.590;8.116;2024-03-02T07:52:56;11.20;99.90
6690;DHT22;76797;51.590;8.116;2024-03-02T07:55:21;11.20;99.90
6690;DHT22;76797;51.590;8.116;2024-03-02T07:57:49;11.30;99.90
6690;DHT22;76797;51.590;8.116;2024-03-02T08:00:15;11.40;99.90
6690;DHT22;76797;51.590;8.116;2024-03-02T08:02:41;11.40;99.90
6690;DHT22;76797;51.590;8.116;2024-03-02T08:05:07;11.50;99.90
6690;DHT22;76797;51.590;8.116;2024-03-02T08:07:33;11.50;99.90
6690;DHT22;76797;51.590;8.116;2024-03-02T08:09:59;11.60;99.90
6690;DHT22;76797;51.590;8.116;2024-03-02T08:12:24;11.70;99.90
6690;DHT22;76797;51.590;8.116;2024-03-02T08:14:50;11.70;99.90
6690;DHT22;76797;51.590;8.116;2024-03-02T08:17:16;11.80;99.90
6690;DHT22;76797;51.590;8.116;2024-03-02T08:19:41;11.80;99.90
6690;DHT22;76797;51.590;8.116;2024-03-02T08:22:07;12.20;99.90
6690;DHT22;76797;51.590;8.116;2024-03-02T08:24:33;12.10;99.90
6690;DHT22;76797;51.590;8.116;2024-03-02T08:26:59;12.10;99.90
6690;DHT22;76797;51.590;8.116;2024-03-02T08:29:25;12.20;99.90
6690;DHT22;76797;51.590;8.116;2024-03-02T08:31:51;12.40;99.90
6690;DHT22;76797;51.590;8.116;2024-03-02T08:34:16;12.40;99.90
6690;DHT22;76797;51.590;8.116;2024-03-02T08:36:42;12.50;99.90
6690;DHT22;76797;51.590;8.116;2024-03-02T08:39:08;12.60;99.90
6690;DHT22;76797;51.590;8.116;2024-03-02T08:41:49;12.70;99.90
6690;DHT22;76797;51.590;8.116;2024-03-02T08:44:16;12.70;99.90
6690;DHT22;76797;51.590;8.116;2024-03-02T08:46:42;12.90;99.90
6690;DHT22;76797;51.590;8.116;2024-03-02T08:49:09;13.00;99.90
6690;DHT22;76797;51.590;8.116;2024-03-02T08:51:35;13.10;99.90
6690;DHT22;76797;51.590;8.116;2024-03-02T08:54:00;13.10;99.90
6690;DHT22;76797;51.590;8.116;2024-03-02T08:56:26;13.30;99.90
6690;DHT22;76797;51.590;8.116;2024-03-02T08:58:52;13.40;99.90
6690;DHT22;76797;51.590;8.116;2024-03-02T09:01:18;13.50;99.90
6690;DHT22;76797;51.590;8.116;2024-03-02T09:03:45;13.60;99.90
6690;DHT22;76797;51.590;8.116;2024-03-02T09:06:11;13.70;99.90
6690;DHT22;76797;51.590;8.116;2024-03-02T09:08:36;13.80;99.90
6690;DHT22;76797;51.590;8.116;2024-03-02T09:11:04;13.90;99.90
6690;DHT22;76797;51.590;8.116;2024-03-02T09:13:30;14.50;99.90
6690;DHT22;76797;51.590;8.116;2024-03-02T09:15:55;14.20;99.90
6690;DHT22;76797;51.590;8.116;2024-03-02T09:18:21;14.20;99.90
6690;DHT22;76797;51.590;8.116;2024-03-02T09:20:46;14.40;99.90
6690;DHT22;76797;51.590;8.116;2024-03-02T09:23:12;14.30;99.90
6690;DHT22;76797;51.590;8.116;2024-03-02T09:25:37;14.40;99.90
6690;DHT22;76797;51.590;8.116;2024-03-02T09:28:03;14.70;99.90
6690;DHT22;76797;51.590;8.116;2024-03-02T09:30:29;14.40;99.90
6690;DHT22;76797;51.590;8.116;2024-03-02T09:32:54;14.40;99.90
6690;DHT22;76797;51.590;8.116;2024-03-02T09:35:20;14.40;99.90
6690;DHT22;76797;51.590;8.116;2024-03-02T09:37:45;14.40;99.90
6690;DHT22;76797;51.590;8.116;2024-03-02T09:40:12;14.60;99.90
6690;DHT22;76797;51.590;8.116;2024-03-02T09:42:38;14.50;99.90
6690;DHT22;76797;51.590;8.116;2024-03-02T09:45:05;14.50;99.90
6690;DHT22;76797;51.590;8.116;2024-03-02T09:47:31;14.50;99.90
6690;DHT22;76797;51.590;8.116;2024-03-02T09:49:57;14.50;99.90
6690;DHT22;76797;51.590;8.116;2024-03-02T09:52:23;14.50;99.90
6690;DHT22;76797;51.590;8.116;2024-03-02T09:54:48;14.50;99.90
6690;DHT22;76797;51.590;8.116;2024-03-02T09:57:15;14.50;99.90
6690;DHT22;76797;51.590;8.116;2024-03-02T09:59:41;14.70;99.90
6690;DHT22;76797;51.590;8.116;2024-03-02T10:02:06;14.60;99.90
6690;DHT22;76797;51.590;8.116;2024-03-02T10:04:33;14.70;99.90
6690;DHT22;76797;51.590;8.116;2024-03-02T10:07:19;14.70;99.90
6690;DHT22;76797;51.590;8.116;2024-03-02T10:09:46;14.70;99.90
6690;DHT22;76797;51.590;8.116;2024-03-02T10:12:14;14.90;99.90
6690;DHT22;76797;51.590;8.116;2024-03-02T10:14:40;14.90;99.90
6690;DHT22;76797;51.590;8.116;2024-03-02T10:17:08;14.90;99.90
6690;DHT22;76797;51.590;8.116;2024-03-02T10:19:35;15.00;99.90
6690;DHT22;76797;51.590;8.116;2024-03-02T10:22:06;15.00;99.90
6690;DHT22;76797;51.590;8.116;2024-03-02T10:24:42;15.10;99.90
6690;DHT22;76797;51.590;8.116;2024-03-02T10:27:14;15.10;99.90
6690;DHT22;76797;51.590;8.116;2024-03-02T10:29:40;15.30;99.90
6690;DHT22;76797;51.590;8.116;2024-03-02T10:32:09;15.40;99.90
6690;DHT22;76797;51.590;8.116;2024-03-02T10:34:36;15.20;99.90
6690;DHT22;76797;51.590;8.116;2024-03-02T10:37:02;15.50;99.90
6690;DHT22;76797;51.590;8.116;2024-03-02T10:39:28;15.30;99.90
6690;DHT22;76797;51.590;8.116;2024-03-02T10:41:55;15.40;99.90
6690;DHT22;76797;51.590;8.116;2024-03-02T10:44:22;15.50;99.90
6690;DHT22;76797;51.590;8.116;2024-03-02T10:46:49;15.50;99.90
6690;DHT22;76797;51.590;8.116;2024-03-02T10:49:16;15.50;99.90
6690;DHT22;76797;51.590;8.116;2024-03-02T10:51:43;15.50;99.90
6690;DHT22;76797;51.590;8.116;2024-03-02T10:54:08;15.60;99.90
6690;DHT22;76797;51.590;8.116;2024-03-02T10:56:40;15.60;99.90
6690;DHT22;76797;51.590;8.116;2024-03-02T11:01:50;15.60;99.90
6690;DHT22;76797;51.590;8.116;2024-03-02T11:04:18;15.60;99.90
6690;DHT22;76797;51.590;8.116;2024-03-02T11:06:49;15.80;99.90
6690;DHT22;76797;51.590;8.116;2024-03-02T11:09:15;15.80;99.90
6690;DHT22;76797;51.590;8.116;2024-03-02T11:11:43;15.90;99.90
6690;DHT22;76797;51.590;8.116;2024-03-02T11:14:14;15.90;99.90
6690;DHT22;76797;51.590;8.116;2024-03-02T11:16:42;15.90;99.90
6690;DHT22;76797;51.590;8.116;2024-03-02T11:19:14;16.20;99.90
6690;DHT22;76797;51.590;8.116;2024-03-02T11:21:40;16.00;99.90
6690;DHT22;76797;51.590;8.116;2024-03-02T11:26:48;16.10;99.90
6690;DHT22;76797;51.590;8.116;2024-03-02T11:29:42;16.50;99.90
6690;DHT22;76797;51.590;8.116;2024-03-02T11:34:42;16.30;99.90
6690;DHT22;76797;51.590;8.116;2024-03-02T11:37:12;16.30;99.90
6690;DHT22;76797;51.590;8.116;2024-03-02T11:39:39;16.50;99.90
6690;DHT22;76797;51.590;8.116;2024-03-02T11:42:08;16.40;99.90
6690;DHT22;76797;51.590;8.116;2024-03-02T11:44:37;16.50;99.90
6690;DHT22;76797;51.590;8.116;2024-03-02T11:47:06;16.50;99.90
6690;DHT22;76797;51.590;8.116;2024-03-02T11:49:49;16.70;99.90
6690;DHT22;76797;51.590;8.116;2024-03-02T11:52:16;16.70;99.90
6690;DHT22;76797;51.590;8.116;2024-03-02T11:54:44;16.90;99.90
6690;DHT22;76797;51.590;8.116;2024-03-02T11:57:15;16.70;99.90
6690;DHT22;76797;51.590;8.116;2024-03-02T11:59:41;16.70;99.90
6690;DHT22;76797;51.590;8.116;2024-03-02T12:02:07;16.70;99.90
6690;DHT22;76797;51.590;8.116;2024-03-02T12:04:38;17.00;99.90
6690;DHT22;76797;51.590;8.116;2024-03-02T12:07:03;16.80;99.90
6690;DHT22;76797;51.590;8.116;2024-03-02T12:09:29;16.90;99.90
6690;DHT22;76797;51.590;8.116;2024-03-02T12:12:05;16.90;99.90
6690;DHT22;76797;51.590;8.116;2024-03-02T12:14:36;16.90;99.90
6690;DHT22;76797;51.590;8.116;2024-03-02T12:17:02;17.10;99.90
6690;DHT22;76797;51.590;8.116;2024-03-02T12:19:29;17.00;99.90
6690;DHT22;76797;51.590;8.116;2024-03-02T12:21:56;17.00;99.90
6690;DHT22;76797;51.590;8.116;2024-03-02T12:24:21;17.00;99.90
6690;DHT22;76797;51.590;8.116;2024-03-02T12:26:51;16.90;99.90
6690;DHT22;76797;51.590;8.116;2024-03-02T12:29:18;17.00;99.90
6690;DHT22;76797;51.590;8.116;2024-03-02T12:31:44;17.00;99.90
6690;DHT22;76797;51.590;8.116;2024-03-02T12:34:14;17.00;99.90
6690;DHT22;76797;51.590;8.116;2024-03-02T12:36:40;17.00;99.90
6690;DHT22;76797;51.590;8.116;2024-03-02T12:39:07;17.10;99.90
6690;DHT22;76797;51.590;8.116;2024-03-02T12:41:36;17.10;99.90
6690;DHT22;76797;51.590;8.116;2024-03-02T12:44:03;17.10;99.90
6690;DHT22;76797;51.590;8.116;2024-03-02T12:46:28;17.20;99.90
6690;DHT22;76797;51.590;8.116;2024-03-02T12:48:54;17.20;99.90
6690;DHT22;76797;51.590;8.116;2024-03-02T12:51:19;17.20;99.90
6690;DHT22;76797;51.590;8.116;2024-03-02T12:53:45;17.20;99.90
6690;DHT22;76797;51.590;8.116;2024-03-02T12:56:11;17.20;99.90
6690;DHT22;76797;51.590;8.116;2024-03-02T12:58:40;17.20;99.90
6690;DHT22;76797;51.590;8.116;2024-03-02T13:01:09;17.50;99.90
6690;DHT22;76797;51.590;8.116;2024-03-02T13:03:38;17.30;99.90
6690;DHT22;76797;51.590;8.116;2024-03-02T13:06:05;17.40;99.90
6690;DHT22;76797;51.590;8.116;2024-03-02T13:08:32;17.30;99.90
6690;DHT22;76797;51.590;8.116;2024-03-02T13:10:58;17.30;99.90
6690;DHT22;76797;51.590;8.116;2024-03-02T13:13:23;17.40;99.90
6690;DHT22;76797;51.590;8.116;2024-03-02T13:15:49;17.40;99.90
6690;DHT22;76797;51.590;8.116;2024-03-02T13:18:17;17.40;99.90
6690;DHT22;76797;51.590;8.116;2024-03-02T13:20:42;17.40;99.90
6690;DHT22;76797;51.590;8.116;2024-03-02T13:23:08;17.40;99.90
6690;DHT22;76797;51.590;8.116;2024-03-02T13:25:33;17.40;99.90
6690;DHT22;76797;51.590;8.116;2024-03-02T13:27:59;17.60;99.90
6690;DHT22;76797;51.590;8.116;2024-03-02T13:30:25;17.50;99.90
6690;DHT22;76797;51.590;8.116;2024-03-02T13:32:50;17.50;99.90
6690;DHT22;76797;51.590;8.116;2024-03-02T13:35:16;17.50;99.90
6690;DHT22;76797;51.590;8.116;2024-03-02T13:37:41;17.50;99.90
6690;DHT22;76797;51.590;8.116;2024-03-02T13:40:07;17.50;99.90
6690;DHT22;76797;51.590;8.116;2024-03-02T13:42:39;17.60;99.90
6690;DHT22;76797;51.590;8.116;2024-03-02T13:45:05;17.70;99.90
6690;DHT22;76797;51.590;8.116;2024-03-02T13:47:31;17.60;99.90
6690;DHT22;76797;51.590;8.116;2024-03-02T13:49:56;17.60;99.90
6690;DHT22;76797;51.590;8.116;2024-03-02T13:52:22;17.70;99.90
6690;DHT22;76797;51.590;8.116;2024-03-02T13:54:48;17.70;99.90
6690;DHT22;76797;51.590;8.116;2024-03-02T13:57:13;17.70;99.90
6690;DHT22;76797;51.590;8.116;2024-03-02T13:59:40;17.70;99.90
6690;DHT22;76797;51.590;8.116;2024-03-02T14:02:06;17.70;99.90
6690;DHT22;76797;51.590;8.116;2024-03-02T14:04:33;17.70;99.90
6690;DHT22;76797;51.590;8.116;2024-03-02T14:07:00;17.70;99.90
6690;DHT22;76797;51.590;8.116;2024-03-02T14:09:25;17.70;99.90
6690;DHT22;76797;51.590;8.116;2024-03-02T14:11:52;17.70;99.90
6690;DHT22;76797;51.590;8.116;2024-03-02T14:14:18;17.70;99.90
6690;DHT22;76797;51.590;8.116;2024-03-02T14:16:44;17.60;99.90
6690;DHT22;76797;51.590;8.116;2024-03-02T14:19:10;17.60;99.90
6690;DHT22;76797;51.590;8.116;2024-03-02T14:21:36;17.60;99.90
6690;DHT22;76797;51.590;8.116;2024-03-02T14:24:02;17.60;99.90
6690;DHT22;76797;51.590;8.116;2024-03-02T14:26:28;17.70;99.90
6690;DHT22;76797;51.590;8.116;2024-03-02T14:28:54;17.70;99.90
6690;DHT22;76797;51.590;8.116;2024-03-02T14:31:20;17.60;99.90
6690;DHT22;76797;51.590;8.116;2024-03-02T14:33:46;17.60;99.90
6690;DHT22;76797;51.590;8.116;2024-03-02T14:36:12;17.60;99.90
6690;DHT22;76797;51.590;8.116;2024-03-02T14:38:38;17.60;99.90
6690;DHT22;76797;51.590;8.116;2024-03-02T14:41:04;17.60;99.90
6690;DHT22;76797;51.590;8.116;2024-03-02T14:43:30;17.60;99.90
6690;DHT22;76797;51.590;8.116;2024-03-02T14:45:56;17.60;99.90
6690;DHT22;76797;51.590;8.116;2024-03-02T14:48:21;17.50;99.90
6690;DHT22;76797;51.590;8.116;2024-03-02T14:50:47;17.50;99.90
6690;DHT22;76797;51.590;8.116;2024-03-02T14:53:13;17.40;99.90
6690;DHT22;76797;51.590;8.116;2024-03-02T14:55:39;17.40;99.90
6690;DHT22;76797;51.590;8.116;2024-03-02T14:58:04;17.40;99.90
6690;DHT22;76797;51.590;8.116;2024-03-02T15:00:30;17.40;99.90
6690;DHT22;76797;51.590;8.116;2024-03-02T15:02:55;17.40;99.90
6690;DHT22;76797;51.590;8.116;2024-03-02T15:05:21;17.30;99.90
6690;DHT22;76797;51.590;8.116;2024-03-02T15:07:46;17.30;99.90
6690;DHT22;76797;51.590;8.116;2024-03-02T15:10:12;17.30;99.90
6690;DHT22;76797;51.590;8.116;2024-03-02T15:12:37;17.20;99.90
6690;DHT22;76797;51.590;8.116;2024-03-02T15:15:03;17.20;99.90
6690;DHT22;76797;51.590;8.116;2024-03-02T15:17:29;17.10;99.90
6690;DHT22;76797;51.590;8.116;2024-03-02T15:19:55;17.10;99.90
6690;DHT22;76797;51.590;8.116;2024-03-02T15:22:21;17.10;99.90
6690;DHT22;76797;51.590;8.116;2024-03-02T15:24:46;17.10;99.90
6690;DHT22;76797;51.590;8.116;2024-03-02T15:27:12;17.00;99.90
6690;DHT22;76797;51.590;8.116;2024-03-02T15:29:38;17.00;99.90
6690;DHT22;76797;51.590;8.116;2024-03-02T15:32:03;17.00;99.90
6690;DHT22;76797;51.590;8.116;2024-03-02T15:34:33;16.90;99.90
6690;DHT22;76797;51.590;8.116;2024-03-02T15:36:59;16.90;99.90
6690;DHT22;76797;51.590;8.116;2024-03-02T15:39:25;17.10;99.90
6690;DHT22;76797;51.590;8.116;2024-03-02T15:41:51;16.90;99.90
6690;DHT22;76797;51.590;8.116;2024-03-02T15:44:17;16.80;99.90
6690;DHT22;76797;51.590;8.116;2024-03-02T15:46:43;16.90;99.90
6690;DHT22;76797;51.590;8.116;2024-03-02T15:49:08;16.80;99.90
6690;DHT22;76797;51.590;8.116;2024-03-02T15:51:34;16.80;99.90
6690;DHT22;76797;51.590;8.116;2024-03-02T15:54:02;16.70;99.90